Kincheloe, Michigan
Current Conditions -  °F | °C
As of 9:15 AM on Thursday 29 Jan 2015 (Local Time) from KCIU Reporting Station
Overcast Overcast  
Wind Chill: 25°   Ceiling: 2400
Heat Index: 25°   Visibility: 1.5mi
Dew Point: 21°   Wind: 0mph
Humidity: 86%   Direction: NA
Pressure: 29.78"   Gusts: NA
Location:  46.15°N, 84.28°W
Report Text: KCIU 291415Z AUTO 00000KT 1 1/2SM OVC024 M04/M06 A2978 RMK AO1
Loading
Personal Weather Stations






























Interactive Weather Map New forecast layout! Learn more

10-Day Weather Forecast

Advertisements
Track Severe Weather on mobile